createdAt,value
2022-08-17T00:00:42.620Z,5.22
2022-08-17T00:03:03.861Z,5.40
2022-08-17T00:05:40.575Z,5.03
2022-08-17T00:08:08.022Z,5.38
2022-08-17T00:10:40.773Z,6.10
2022-08-17T00:13:12.556Z,6.28
2022-08-17T00:15:39.464Z,6.65
2022-08-17T00:19:04.184Z,7.20
2022-08-17T00:20:57.321Z,5.35
2022-08-17T00:23:27.852Z,5.68
2022-08-17T00:25:57.210Z,6.53
2022-08-17T00:28:24.342Z,5.32
2022-08-17T00:30:54.404Z,5.32
2022-08-17T00:33:31.481Z,4.82
2022-08-17T00:35:59.377Z,5.28
2022-08-17T00:38:30.341Z,5.55
2022-08-17T00:41:12.886Z,5.40
2022-08-17T00:43:44.246Z,5.28
2022-08-17T00:46:15.675Z,6.35
2022-08-17T00:48:42.535Z,5.45
2022-08-17T00:51:12.088Z,5.25
2022-08-17T00:53:42.622Z,5.68
2022-08-17T00:56:17.902Z,5.30
2022-08-17T00:58:45.020Z,5.80
2022-08-17T01:01:21.325Z,6.28
2022-08-17T01:03:50.636Z,5.75
2022-08-17T01:06:20.111Z,6.03
2022-08-17T01:08:57.321Z,4.88
2022-08-17T01:11:29.589Z,5.75
2022-08-17T01:13:56.497Z,6.03
2022-08-17T01:16:31.586Z,5.68
2022-08-17T01:19:20.151Z,5.85
2022-08-17T01:21:53.154Z,5.03
2022-08-17T01:24:22.323Z,5.97
2022-08-17T01:26:51.294Z,5.43
2022-08-17T01:29:22.930Z,4.97
2022-08-17T01:31:58.841Z,5.80
2022-08-17T01:34:37.371Z,4.93
2022-08-17T01:37:13.102Z,6.05
2022-08-17T01:40:00.282Z,5.32
2022-08-17T01:42:36.457Z,5.13
2022-08-17T01:45:17.487Z,5.35
2022-08-17T01:47:49.603Z,5.47
2022-08-17T01:50:23.659Z,5.00
2022-08-17T01:52:56.467Z,5.88
2022-08-17T01:55:31.747Z,5.20
2022-08-17T01:57:58.617Z,5.97
2022-08-17T02:00:26.874Z,5.38
2022-08-17T02:03:16.061Z,6.70
2022-08-17T02:05:49.013Z,5.10
2022-08-17T02:08:20.138Z,6.10
2022-08-17T02:10:48.771Z,6.30
2022-08-17T02:13:16.605Z,6.30
2022-08-17T02:15:43.602Z,6.03
2022-08-17T02:18:10.946Z,5.82
2022-08-17T02:20:41.823Z,5.70
2022-08-17T02:23:12.904Z,5.47
2022-08-17T02:25:43.362Z,4.97
2022-08-17T02:28:10.889Z,5.43
2022-08-17T02:30:50.154Z,6.05
2022-08-17T02:33:42.634Z,5.95
2022-08-17T02:36:13.959Z,5.78
2022-08-17T02:38:41.854Z,4.82
2022-08-17T02:41:09.440Z,5.70
2022-08-17T02:43:40.796Z,5.68
2022-08-17T02:46:07.594Z,5.35
2022-08-17T02:48:34.389Z,5.70
2022-08-17T02:51:04.175Z,6.18
2022-08-17T02:53:35.565Z,6.00
2022-08-17T02:56:03.138Z,6.63
2022-08-17T02:58:32.130Z,6.25
2022-08-17T03:01:07.249Z,6.07
2022-08-17T03:03:39.868Z,5.38
2022-08-17T03:06:09.330Z,6.07
2022-08-17T03:08:38.672Z,7.05
2022-08-17T03:11:05.562Z,6.60
2022-08-17T03:13:34.815Z,5.78
2022-08-17T03:16:01.621Z,6.40
2022-08-17T03:18:28.413Z,5.88
2022-08-17T03:21:00.019Z,6.90
2022-08-17T03:23:27.874Z,5.93
2022-08-17T03:25:56.655Z,5.47
2022-08-17T03:28:24.197Z,5.82
2022-08-17T03:30:51.720Z,5.43
2022-08-17T03:33:21.162Z,5.47
2022-08-17T03:35:50.258Z,6.20
2022-08-17T03:38:19.885Z,5.65
2022-08-17T03:40:56.623Z,5.43
2022-08-17T03:43:31.415Z,7.03
2022-08-17T03:46:27.723Z,6.80
2022-08-17T03:49:17.581Z,6.53
2022-08-17T03:52:03.181Z,6.05
2022-08-17T03:54:48.597Z,5.93
2022-08-17T03:57:16.321Z,5.65
2022-08-17T03:59:45.013Z,5.22
2022-08-17T04:02:21.454Z,5.57
2022-08-17T04:04:54.194Z,5.95
2022-08-17T04:07:22.805Z,5.90
2022-08-17T04:09:51.789Z,6.03
2022-08-17T04:12:20.810Z,5.72
2022-08-17T04:14:53.124Z,5.65
2022-08-17T04:17:26.736Z,5.95
2022-08-17T04:19:54.925Z,5.68
2022-08-17T04:22:30.954Z,6.30
2022-08-17T04:25:08.577Z,5.82
2022-08-17T04:27:38.133Z,6.38
2022-08-17T04:30:07.706Z,5.63
2022-08-17T04:33:05.818Z,6.30
2022-08-17T04:35:50.078Z,7.40
2022-08-17T04:38:24.417Z,7.13
2022-08-17T04:41:11.196Z,6.63
2022-08-17T04:43:39.781Z,6.72
2022-08-17T04:46:18.980Z,7.50
2022-08-17T04:48:48.412Z,7.40
2022-08-17T04:51:19.516Z,7.00
2022-08-17T04:53:54.505Z,6.50
2022-08-17T04:56:26.187Z,5.93
2022-08-17T04:58:56.035Z,6.80
2022-08-17T05:01:28.020Z,6.20
2022-08-17T05:04:21.422Z,6.60
2022-08-17T05:06:55.805Z,6.60
2022-08-17T05:09:25.159Z,6.15
2022-08-17T05:11:55.290Z,6.60
2022-08-17T05:14:33.521Z,6.70
2022-08-17T05:17:01.200Z,6.32
2022-08-17T05:19:28.632Z,5.60
2022-08-17T05:21:55.382Z,5.88
2022-08-17T05:24:42.860Z,5.90
2022-08-17T05:27:19.107Z,5.60
2022-08-17T05:29:48.287Z,5.05
2022-08-17T05:32:37.897Z,5.40
2022-08-17T05:35:01.875Z,6.25
2022-08-17T05:37:33.338Z,5.32
2022-08-17T05:40:00.224Z,6.63
2022-08-17T05:42:27.142Z,6.93
2022-08-17T05:44:57.759Z,6.30
2022-08-17T05:47:27.225Z,6.38
2022-08-17T05:49:54.570Z,7.65
2022-08-17T05:52:50.615Z,6.95
2022-08-17T05:55:27.976Z,6.07
2022-08-17T05:58:12.826Z,5.85
2022-08-17T06:00:48.764Z,5.82
2022-08-17T06:03:17.863Z,5.97
2022-08-17T06:05:59.891Z,5.72
2022-08-17T06:11:30.014Z,5.40
2022-08-17T06:14:21.123Z,5.50
2022-08-17T06:16:54.005Z,4.85
2022-08-17T06:19:59.700Z,4.65
2022-08-17T06:22:33.286Z,4.40
2022-08-17T06:25:25.409Z,4.45
2022-08-17T06:28:05.904Z,4.65
2022-08-17T06:30:59.973Z,4.47
2022-08-17T06:33:35.979Z,4.70
2022-08-17T06:36:15.932Z,4.93
2022-08-17T06:38:51.009Z,4.35
2022-08-17T06:41:29.634Z,5.07
2022-08-17T06:44:08.323Z,4.68
2022-08-17T06:46:39.219Z,5.30
2022-08-17T06:49:19.787Z,5.93
2022-08-17T06:51:46.504Z,5.38
2022-08-17T06:54:19.210Z,6.50
2022-08-17T06:57:19.054Z,5.60
2022-08-17T06:59:56.195Z,5.75
2022-08-17T07:02:52.169Z,5.97
2022-08-17T07:05:30.517Z,5.65
2022-08-17T07:08:16.989Z,5.45
2022-08-17T07:10:48.260Z,5.05
2022-08-17T07:13:34.189Z,5.18
2022-08-17T07:16:48.071Z,4.55
2022-08-17T07:19:19.779Z,4.25
2022-08-17T07:22:16.470Z,4.55
2022-08-17T07:24:51.566Z,4.55
2022-08-17T07:27:33.811Z,3.85
2022-08-17T07:30:19.295Z,4.07
2022-08-17T07:32:57.321Z,4.28
2022-08-17T07:35:41.275Z,4.30
2022-08-17T07:38:26.886Z,3.80
2022-08-17T07:40:57.811Z,3.95
2022-08-17T07:43:34.050Z,4.00
2022-08-17T07:46:34.541Z,3.65
2022-08-17T07:49:03.210Z,4.00
2022-08-17T07:51:35.642Z,3.78
2022-08-17T07:54:22.663Z,3.50
2022-08-17T07:57:00.904Z,3.63
2022-08-17T07:59:33.349Z,4.10
2022-08-17T08:02:03.828Z,3.30
2022-08-17T08:05:01.154Z,3.00
2022-08-17T08:07:55.132Z,3.38
2022-08-17T08:10:42.756Z,2.75
2022-08-17T08:13:23.442Z,3.33
2022-08-17T08:15:54.908Z,3.40
2022-08-17T08:18:54.995Z,3.03
2022-08-17T08:21:39.234Z,3.78
2022-08-17T08:24:12.251Z,3.53
2022-08-17T08:26:55.520Z,3.22
2022-08-17T08:29:30.642Z,3.13
2022-08-17T08:32:32.297Z,2.80
2022-08-17T08:35:07.932Z,3.10
2022-08-17T08:37:55.672Z,2.42
2022-08-17T08:40:34.189Z,2.70
2022-08-17T08:43:00.886Z,3.10
2022-08-17T08:45:41.091Z,2.80
2022-08-17T08:48:56.100Z,2.92
2022-08-17T08:51:36.235Z,2.92
2022-08-17T08:54:14.650Z,2.95
2022-08-17T08:57:04.978Z,2.67
2022-08-17T09:00:02.268Z,3.35
2022-08-17T09:02:29.040Z,2.85
2022-08-17T09:05:20.536Z,3.10
2022-08-17T09:08:01.830Z,2.90
2022-08-17T09:10:57.638Z,2.80
2022-08-17T09:13:36.263Z,2.83
2022-08-17T09:16:35.062Z,3.03
2022-08-17T09:19:32.259Z,3.00
2022-08-17T09:22:20.668Z,2.70
2022-08-17T09:24:57.126Z,3.15
2022-08-17T09:27:30.866Z,3.35
2022-08-17T09:30:02.541Z,3.28
2022-08-17T09:35:20.847Z,3.10
2022-08-17T09:38:05.626Z,2.80
2022-08-17T09:40:56.602Z,3.10
2022-08-17T09:43:31.942Z,3.38
2022-08-17T09:46:08.856Z,3.00
2022-08-17T09:48:50.303Z,3.38
2022-08-17T09:51:34.996Z,3.65
2022-08-17T09:54:37.091Z,2.97
2022-08-17T09:57:31.384Z,3.10
2022-08-17T10:00:25.539Z,3.28
2022-08-17T10:03:20.983Z,3.00
2022-08-17T10:06:01.991Z,3.67
2022-08-17T10:08:57.494Z,3.17
2022-08-17T10:12:07.497Z,3.10
2022-08-17T10:14:46.321Z,3.05
2022-08-17T10:17:20.416Z,3.40
2022-08-17T10:19:56.282Z,3.38
2022-08-17T10:23:06.361Z,3.00
2022-08-17T10:26:12.948Z,2.92
2022-08-17T10:28:48.099Z,3.08
2022-08-17T10:31:34.774Z,2.85
2022-08-17T10:34:23.559Z,3.13
2022-08-17T10:37:02.514Z,2.78
2022-08-17T10:39:52.156Z,3.40
2022-08-17T10:42:30.466Z,2.70
2022-08-17T10:45:06.760Z,2.67
2022-08-17T10:48:13.056Z,3.03
2022-08-17T10:50:46.237Z,2.75
2022-08-17T10:53:32.968Z,2.25
2022-08-17T10:56:12.087Z,2.70
2022-08-17T10:58:57.207Z,2.70
2022-08-17T11:01:33.830Z,2.72
2022-08-17T11:04:19.679Z,3.08
2022-08-17T11:07:17.838Z,2.85
2022-08-17T11:10:08.128Z,2.95
2022-08-17T11:12:42.390Z,3.22
2022-08-17T11:15:36.911Z,2.70
2022-08-17T11:18:22.556Z,3.22
2022-08-17T11:21:11.379Z,3.00
2022-08-17T11:24:01.450Z,3.22
2022-08-17T11:26:33.509Z,3.78
2022-08-17T11:29:24.581Z,3.47
2022-08-17T11:32:14.237Z,3.97
2022-08-17T11:34:44.569Z,3.42
2022-08-17T11:37:18.514Z,3.83
2022-08-17T11:40:06.753Z,3.83
2022-08-17T11:42:48.293Z,3.67
2022-08-17T11:46:03.703Z,4.18
2022-08-17T11:49:07.333Z,3.78
2022-08-17T11:51:52.643Z,3.63
2022-08-17T11:54:37.737Z,3.83
2022-08-17T11:57:26.096Z,3.55
2022-08-17T11:59:58.634Z,3.47
2022-08-17T12:02:36.144Z,3.42
2022-08-17T12:05:14.922Z,3.65
2022-08-17T12:07:52.390Z,3.70
2022-08-17T12:10:23.519Z,4.03
2022-08-17T12:12:54.019Z,3.55
2022-08-17T12:15:30.285Z,3.10
2022-08-17T12:17:57.817Z,3.22
2022-08-17T12:20:38.501Z,2.90
2022-08-17T12:23:22.997Z,2.53
2022-08-17T12:25:56.797Z,2.88
2022-08-17T12:28:33.349Z,2.53
2022-08-17T12:31:04.384Z,2.80
2022-08-17T12:33:42.512Z,2.80
2022-08-17T12:36:15.135Z,2.80
2022-08-17T12:38:59.453Z,2.90
2022-08-17T12:41:46.887Z,2.85
2022-08-17T12:44:29.026Z,2.15
2022-08-17T12:47:02.171Z,2.17
2022-08-17T12:49:38.245Z,2.28
2022-08-17T12:52:08.017Z,1.80
2022-08-17T12:54:49.317Z,2.10
2022-08-17T12:57:22.836Z,2.25
2022-08-17T12:59:58.931Z,2.13
2022-08-17T13:02:51.680Z,1.83
2022-08-17T13:05:29.371Z,1.70
2022-08-17T13:07:58.915Z,1.98
2022-08-17T13:10:35.379Z,1.95
2022-08-17T13:13:06.886Z,2.33
2022-08-17T13:15:51.078Z,2.40
2022-08-17T13:18:39.007Z,2.28
2022-08-17T13:21:26.828Z,2.13
2022-08-17T13:24:14.653Z,2.10
2022-08-17T13:26:46.281Z,2.38
2022-08-17T13:31:52.148Z,1.85
2022-08-17T13:34:26.952Z,2.20
2022-08-17T13:37:27.062Z,2.20
2022-08-17T13:40:02.356Z,1.73
2022-08-17T13:42:52.037Z,1.92
2022-08-17T13:45:36.768Z,2.10
2022-08-17T13:48:27.173Z,1.95
2022-08-17T13:50:56.826Z,1.73
2022-08-17T13:53:40.423Z,1.83
2022-08-17T13:56:38.692Z,2.17
2022-08-17T13:59:09.474Z,2.35
2022-08-17T14:01:53.190Z,2.05
2022-08-17T14:04:23.727Z,1.70
2022-08-17T14:06:54.297Z,2.05
2022-08-17T14:09:25.435Z,2.03
2022-08-17T14:11:56.736Z,2.13
2022-08-17T14:14:27.220Z,1.90
2022-08-17T14:16:54.465Z,1.80
2022-08-17T14:19:24.438Z,1.95
2022-08-17T14:21:53.598Z,1.92
2022-08-17T14:24:29.747Z,1.83
2022-08-17T14:27:00.801Z,2.45
2022-08-17T14:29:30.118Z,2.25
2022-08-17T14:31:58.125Z,2.00
2022-08-17T14:34:25.283Z,1.70
2022-08-17T14:36:54.252Z,2.28
2022-08-17T14:39:23.545Z,1.85
2022-08-17T14:41:55.615Z,2.30
2022-08-17T14:44:22.348Z,1.70
2022-08-17T14:46:51.447Z,1.83
2022-08-17T14:49:19.757Z,2.30
2022-08-17T14:51:49.505Z,2.05
2022-08-17T14:54:28.762Z,2.20
2022-08-17T14:57:23.283Z,1.92
2022-08-17T14:59:54.852Z,2.17
2022-08-17T15:02:32.025Z,1.85
2022-08-17T15:05:03.517Z,2.10
2022-08-17T15:10:00.743Z,2.08
2022-08-17T15:12:32.740Z,1.90
2022-08-17T15:15:01.379Z,1.95
2022-08-17T15:17:44.578Z,2.08
2022-08-17T15:20:18.350Z,2.15
2022-08-17T15:22:46.946Z,2.10
2022-08-17T15:25:14.108Z,2.25
2022-08-17T15:27:41.400Z,2.20
2022-08-17T15:30:09.971Z,2.20
2022-08-17T15:32:40.896Z,2.00
2022-08-17T15:35:16.534Z,2.05
2022-08-17T15:37:44.116Z,2.13
2022-08-17T15:40:11.909Z,2.00
2022-08-17T15:42:41.455Z,2.10
2022-08-17T15:45:12.184Z,1.85
2022-08-17T15:47:42.541Z,1.83
2022-08-17T15:50:10.178Z,2.05
2022-08-17T15:52:40.540Z,2.10
2022-08-17T15:55:11.004Z,1.70
2022-08-17T15:57:38.143Z,1.70
2022-08-17T16:00:08.454Z,1.90
2022-08-17T16:03:45.086Z,1.88
2022-08-17T16:05:28.570Z,1.88
2022-08-17T16:08:02.795Z,1.92
2022-08-17T16:13:04.082Z,2.00
2022-08-17T16:15:31.919Z,2.03
2022-08-17T16:18:02.613Z,2.40
2022-08-17T16:20:31.675Z,1.90
2022-08-17T16:23:00.771Z,1.98
2022-08-17T16:25:51.937Z,1.80
2022-08-17T16:28:18.023Z,2.38
2022-08-17T16:30:47.345Z,2.22
2022-08-17T16:33:17.837Z,2.10
2022-08-17T16:35:44.631Z,2.33
2022-08-17T16:38:12.483Z,2.25
2022-08-17T16:40:40.479Z,2.20
2022-08-17T16:43:10.633Z,2.42
2022-08-17T16:45:40.998Z,2.05
2022-08-17T16:48:09.051Z,2.50
2022-08-17T16:50:36.807Z,1.90
2022-08-17T16:53:17.174Z,2.20
2022-08-17T16:55:48.517Z,2.15
2022-08-17T16:58:18.163Z,1.98
2022-08-17T17:00:45.937Z,1.98
2022-08-17T17:03:19.223Z,2.15
2022-08-17T17:06:07.217Z,2.00
2022-08-17T17:08:46.692Z,1.95
2022-08-17T17:11:20.287Z,2.40
2022-08-17T17:13:56.446Z,2.17
2022-08-17T17:16:38.344Z,2.28
2022-08-17T17:19:09.005Z,2.63
2022-08-17T17:22:03.935Z,2.50
2022-08-17T17:25:04.521Z,2.40
2022-08-17T17:27:42.558Z,2.10
2022-08-17T17:30:17.419Z,2.40
2022-08-17T17:32:59.016Z,2.50
2022-08-17T17:35:31.584Z,2.67
2022-08-17T17:38:03.962Z,2.58
2022-08-17T17:40:44.214Z,2.40
2022-08-17T17:43:37.811Z,2.80
2022-08-17T17:46:27.851Z,2.63
2022-08-17T17:48:59.347Z,2.47
2022-08-17T17:52:10.213Z,2.42
2022-08-17T17:54:48.226Z,2.50
2022-08-17T17:57:27.666Z,2.50
2022-08-17T18:00:08.770Z,2.55
2022-08-17T18:02:53.495Z,2.45
2022-08-17T18:05:34.860Z,2.13
2022-08-17T18:08:35.195Z,2.20
2022-08-17T18:11:24.225Z,2.35
2022-08-17T18:14:05.725Z,2.75
2022-08-17T18:16:36.518Z,2.92
2022-08-17T18:19:03.323Z,2.47
2022-08-17T18:21:37.965Z,2.70
2022-08-17T18:24:08.320Z,2.47
2022-08-17T18:26:40.190Z,2.50
2022-08-17T18:29:32.402Z,2.67
2022-08-17T18:32:21.230Z,2.58
2022-08-17T18:35:03.139Z,3.00
2022-08-17T18:37:45.168Z,2.35
2022-08-17T18:40:36.633Z,3.08
2022-08-17T18:43:15.592Z,3.75
2022-08-17T18:45:51.105Z,3.38
2022-08-17T18:48:20.997Z,3.50
2022-08-17T18:50:53.463Z,2.97
2022-08-17T18:53:30.355Z,3.10
2022-08-17T18:56:43.009Z,3.03
2022-08-17T18:59:18.801Z,2.40
2022-08-17T19:02:05.130Z,3.20
2022-08-17T19:04:55.952Z,2.95
2022-08-17T19:07:23.526Z,2.90
2022-08-17T19:09:55.542Z,3.13
2022-08-17T19:12:34.561Z,3.10
2022-08-17T19:15:04.532Z,3.10
2022-08-17T19:18:00.459Z,2.83
2022-08-17T19:20:35.482Z,2.97
2022-08-17T19:23:53.395Z,2.75
2022-08-17T19:26:53.513Z,2.80
2022-08-17T19:29:44.390Z,2.70
2022-08-17T19:32:16.359Z,2.47
2022-08-17T19:34:46.087Z,3.13
2022-08-17T19:37:42.109Z,2.80
2022-08-17T19:40:52.681Z,3.20
2022-08-17T19:43:39.066Z,2.88
2022-08-17T19:46:14.832Z,2.95
2022-08-17T19:49:03.864Z,3.13
2022-08-17T19:51:48.053Z,2.80
2022-08-17T19:54:35.989Z,3.00
2022-08-17T19:57:08.131Z,2.90
2022-08-17T20:00:12.865Z,2.70
2022-08-17T20:02:42.358Z,2.63
2022-08-17T20:05:19.872Z,3.10
2022-08-17T20:08:04.951Z,3.58
2022-08-17T20:10:55.915Z,3.00
2022-08-17T20:13:33.943Z,3.38
2022-08-17T20:16:02.360Z,2.90
2022-08-17T20:18:59.272Z,3.30
2022-08-17T20:21:50.200Z,3.20
2022-08-17T20:24:46.407Z,3.92
2022-08-17T20:27:16.272Z,2.75
2022-08-17T20:30:06.260Z,3.15
2022-08-17T20:32:55.599Z,2.83
2022-08-17T20:35:22.689Z,3.67
2022-08-17T20:38:02.157Z,3.75
2022-08-17T20:40:37.044Z,3.28
2022-08-17T20:43:33.359Z,3.75
2022-08-17T20:46:09.139Z,3.40
2022-08-17T20:48:41.635Z,3.60
2022-08-17T20:51:17.740Z,4.00
2022-08-17T20:53:49.704Z,3.42
2022-08-17T20:56:44.484Z,3.50
2022-08-17T20:59:27.514Z,3.83
2022-08-17T21:02:27.562Z,3.65
2022-08-17T21:04:54.507Z,3.40
2022-08-17T21:07:43.131Z,3.50
2022-08-17T21:10:25.916Z,3.58
2022-08-17T21:13:13.434Z,4.13
2022-08-17T21:15:43.833Z,3.53
2022-08-17T21:18:10.577Z,3.63
2022-08-17T21:21:06.347Z,3.70
2022-08-17T21:23:53.322Z,3.58
2022-08-17T21:26:39.643Z,4.25
2022-08-17T21:29:32.045Z,4.13
2022-08-17T21:32:06.359Z,3.80
2022-08-17T21:34:45.257Z,3.88
2022-08-17T21:37:23.821Z,3.63
2022-08-17T21:39:58.599Z,3.85
2022-08-17T21:42:34.576Z,4.40
2022-08-17T21:45:18.370Z,3.85
2022-08-17T21:48:06.912Z,3.45
2022-08-17T21:50:35.513Z,3.85
2022-08-17T21:53:04.033Z,4.22
2022-08-17T21:55:33.985Z,3.80
2022-08-17T21:58:14.277Z,3.85
2022-08-17T22:00:44.459Z,3.87
2022-08-17T22:03:27.747Z,3.80
2022-08-17T22:05:54.494Z,3.75
2022-08-17T22:08:24.308Z,3.85
2022-08-17T22:11:03.429Z,3.55
2022-08-17T22:13:32.429Z,3.85
2022-08-17T22:16:15.377Z,4.30
2022-08-17T22:18:57.832Z,4.00
2022-08-17T22:21:25.335Z,3.15
2022-08-17T22:24:20.280Z,3.83
2022-08-17T22:27:02.269Z,3.97
2022-08-17T22:29:44.227Z,4.25
2022-08-17T22:34:42.348Z,4.97
2022-08-17T22:37:28.438Z,4.13
2022-08-17T22:40:01.283Z,4.72
2022-08-17T22:42:31.186Z,5.15
2022-08-17T22:44:58.174Z,3.97
2022-08-17T22:47:43.001Z,5.13
2022-08-17T22:50:23.550Z,5.20
2022-08-17T22:53:31.536Z,5.20
2022-08-17T22:56:16.981Z,5.18
2022-08-17T22:59:12.230Z,5.35
2022-08-17T23:01:40.863Z,6.18
2022-08-17T23:04:24.418Z,6.43
2022-08-17T23:06:54.082Z,5.75
2022-08-17T23:09:21.141Z,5.82
2022-08-17T23:11:58.529Z,6.43
2022-08-17T23:14:32.200Z,6.80
2022-08-17T23:17:01.722Z,6.80
2022-08-17T23:19:31.699Z,6.82
2022-08-17T23:22:01.380Z,7.47
2022-08-17T23:24:31.139Z,7.03
2022-08-17T23:27:00.725Z,5.75
2022-08-17T23:29:29.270Z,7.18
2022-08-17T23:31:59.682Z,8.05
2022-08-17T23:34:28.031Z,6.97
2022-08-17T23:36:55.829Z,8.02
2022-08-17T23:39:28.195Z,8.07
2022-08-17T23:42:00.185Z,8.52
2022-08-17T23:46:58.181Z,7.82
2022-08-17T23:49:27.229Z,8.35
2022-08-17T23:51:54.737Z,9.27
2022-08-17T23:54:26.967Z,8.48
2022-08-17T23:56:53.818Z,8.00
2022-08-17T23:59:27.432Z,8.45
